Time;durP1;ratioP1;P1;durP2;ratioP2;P2;SDS_P1;SDS_P2;PMS_P1;PMS_P2;Temp;Humidity;BMP_temperature;BMP_pressure;BME280_temperature;BME280_humidity;BME280_pressure;Samples;Min_cycle;Max_cycle;Signal;HPM_P1;HPM_P2
2024/04/16 00:02:23;;;;;;;8.10;1.73;;;;;;;10.23;53.69;100167.53;5276165;26;113570;-66
2024/04/16 00:04:50;;;;;;;8.23;1.83;;;;;;;10.25;53.68;100158.56;5278362;26;113338;-65
2024/04/16 00:07:18;;;;;;;9.13;1.90;;;;;;;10.28;53.56;100145.16;5257515;26;121131;-66
2024/04/16 00:09:45;;;;;;;10.73;1.67;;;;;;;10.34;53.56;100149.31;5286791;26;122325;-66
2024/04/16 00:12:13;;;;;;;7.05;1.50;;;;;;;10.39;53.57;100151.69;5278967;26;112767;-66
2024/04/16 00:15:06;;;;;;;10.65;1.80;;;;;;;10.44;53.54;100150.47;5274535;26;112352;-66
2024/04/16 00:17:34;;;;;;;10.07;1.80;;;;;;;10.49;53.51;100147.56;5259043;26;121264;-66
2024/04/16 00:20:02;;;;;;;6.90;1.50;;;;;;;10.54;53.41;100149.97;5270192;26;121089;-66
2024/04/16 00:22:29;;;;;;;9.93;1.75;;;;;;;10.57;53.30;100139.19;5252356;26;111566;-66
2024/04/16 00:24:56;;;;;;;12.30;2.00;;;;;;;10.61;53.26;100140.75;5293672;26;113086;-65
2024/04/16 00:27:24;;;;;;;10.27;1.60;;;;;;;10.64;53.25;100141.44;5287850;26;122359;-66
2024/04/16 00:29:51;;;;;;;9.57;1.75;;;;;;;10.67;53.05;100143.88;5263860;26;121630;-66
2024/04/16 00:32:19;;;;;;;11.15;1.85;;;;;;;10.67;53.05;100130.66;5285572;26;112726;-66
2024/04/16 00:34:51;;;;;;;6.53;1.63;;;;;;;10.68;52.82;100124.41;5284727;26;112236;-66
2024/04/16 00:37:19;;;;;;;8.25;1.92;;;;;;;10.69;52.88;100127.91;5288233;26;122363;-66
2024/04/16 00:39:47;;;;;;;10.00;1.75;;;;;;;10.68;52.83;100121.78;5282175;26;121318;-66
2024/04/16 00:42:15;;;;;;;10.35;2.08;;;;;;;10.66;52.76;100118.38;5274875;26;113440;-65
2024/04/16 00:44:42;;;;;;;8.63;1.70;;;;;;;10.65;52.77;100121.94;5253766;26;111651;-65
2024/04/16 00:47:11;;;;;;;5.15;1.60;;;;;;;10.62;52.82;100121.25;5281182;26;122103;-66
2024/04/16 00:49:39;;;;;;;9.15;1.73;;;;;;;10.59;52.72;100117.00;5288632;26;124394;-66
2024/04/16 00:52:06;;;;;;;10.63;2.10;;;;;;;10.58;52.74;100103.84;5295777;26;113569;-66
2024/04/16 00:54:34;;;;;;;10.05;1.80;;;;;;;10.55;52.86;100104.88;5277736;26;113843;-66
2024/04/16 00:57:03;;;;;;;7.95;1.70;;;;;;;10.53;52.80;100096.19;5285637;26;123229;-66
2024/04/16 00:59:32;;;;;;;9.95;1.67;;;;;;;10.51;52.83;100090.97;5281356;26;122219;-66
2024/04/16 01:02:00;;;;;;;4.82;1.40;;;;;;;10.50;52.75;100083.09;5287875;26;112932;-66
2024/04/16 01:04:27;;;;;;;9.88;1.83;;;;;;;10.49;52.76;100078.72;5281473;26;112642;-66
2024/04/16 01:06:55;;;;;;;6.18;1.70;;;;;;;10.48;52.91;100077.03;5281397;26;123164;-66
2024/04/16 01:09:22;;;;;;;7.80;1.45;;;;;;;10.46;52.91;100068.34;5277334;26;122176;-66
2024/04/16 01:11:50;;;;;;;10.43;1.75;;;;;;;10.45;52.78;100069.25;5271911;26;112710;-66
2024/04/16 01:14:17;;;;;;;7.57;1.52;;;;;;;10.42;52.92;100072.09;5267166;26;112460;-66
2024/04/16 01:16:45;;;;;;;6.18;1.50;;;;;;;10.42;53.07;100066.81;5273268;26;122191;-66
2024/04/16 01:19:12;;;;;;;9.63;2.15;;;;;;;10.40;52.95;100071.34;5275342;26;122577;-67
2024/04/16 01:21:39;;;;;;;5.97;1.83;;;;;;;10.39;52.91;100072.25;5281893;26;112323;-66
2024/04/16 01:24:07;;;;;;;9.63;1.75;;;;;;;10.36;52.92;100059.19;5285320;26;112996;-66
2024/04/16 01:26:34;;;;;;;4.40;1.55;;;;;;;10.32;53.05;100046.16;5252463;26;121302;-66
2024/04/16 01:29:02;;;;;;;3.85;1.55;;;;;;;10.29;53.17;100056.88;5256621;26;120933;-66
2024/04/16 01:31:31;;;;;;;5.60;1.83;;;;;;;10.27;53.14;100068.50;5288586;26;113024;-66
2024/04/16 01:33:59;;;;;;;9.75;1.70;;;;;;;10.23;53.24;100057.22;5282599;26;112281;-66
2024/04/16 01:36:27;;;;;;;5.82;1.60;;;;;;;10.22;53.34;100055.50;5286303;26;120952;-66
2024/04/16 01:38:54;;;;;;;7.82;1.40;;;;;;;10.20;53.41;100046.81;5288065;26;122327;-66
2024/04/16 01:41:21;;;;;;;7.45;1.60;;;;;;;10.20;53.45;100053.91;5282801;26;113692;-66
2024/04/16 01:43:49;;;;;;;7.20;1.60;;;;;;;10.18;53.32;100053.97;5296716;26;114762;-66
2024/04/16 01:46:16;;;;;;;8.57;1.65;;;;;;;10.18;53.53;100059.25;5257191;26;125079;-66
2024/04/16 01:48:43;;;;;;;8.82;1.42;;;;;;;10.17;53.60;100062.88;5296560;26;122328;-66
2024/04/16 01:51:11;;;;;;;4.88;1.35;;;;;;;10.15;53.61;100048.84;5293788;26;113292;-66
2024/04/16 01:53:39;;;;;;;7.13;1.80;;;;;;;10.14;53.72;100052.44;5273973;26;112893;-67
2024/04/16 01:56:06;;;;;;;4.70;1.40;;;;;;;10.11;53.74;100052.59;5276780;26;122062;-66
2024/04/16 01:58:34;;;;;;;4.53;1.40;;;;;;;10.09;53.82;100070.38;5280373;26;122518;-67
2024/04/16 02:01:01;;;;;;;4.53;1.20;;;;;;;10.07;53.97;100066.94;5283386;26;113676;-67
2024/04/16 02:03:29;;;;;;;6.25;1.58;;;;;;;10.05;53.96;100072.31;5283110;26;112295;-66
2024/04/16 02:05:57;;;;;;;5.88;1.30;;;;;;;10.01;53.91;100073.44;5282300;26;121910;-66
2024/04/16 02:08:25;;;;;;;5.20;1.70;;;;;;;9.99;54.15;100055.94;5288120;26;122280;-66
2024/04/16 02:10:54;;;;;;;3.90;1.55;;;;;;;9.96;54.08;100042.88;5274770;26;113371;-66
2024/04/16 02:13:23;;;;;;;7.30;1.80;;;;;;;9.91;54.41;100037.84;5278234;26;112626;-66
2024/04/16 02:15:52;;;;;;;6.00;1.65;;;;;;;9.89;54.48;100037.94;5279404;26;123069;-66
2024/04/16 02:18:19;;;;;;;7.55;1.75;;;;;;;9.84;54.47;100034.69;5285951;26;121937;-67
2024/04/16 02:20:47;;;;;;;5.65;1.50;;;;;;;9.82;54.59;100033.06;5294659;26;112610;-67
2024/04/16 02:23:15;;;;;;;6.63;1.58;;;;;;;9.78;54.45;100029.75;5288812;26;112500;-67
2024/04/16 02:25:49;;;;;;;4.50;1.50;;;;;;;9.73;54.87;100015.91;5294808;26;122355;-69
2024/04/16 02:28:16;;;;;;;4.90;1.63;;;;;;;9.71;54.84;100012.50;5266306;26;122654;-64
2024/04/16 02:30:44;;;;;;;9.07;2.00;;;;;;;9.68;54.88;100017.94;5284593;26;116357;-64
2024/04/16 02:33:14;;;;;;;4.10;1.83;;;;;;;9.65;54.96;100012.84;5295931;26;114128;-64
2024/04/16 02:35:41;;;;;;;6.07;2.03;;;;;;;9.62;54.89;100002.44;5281447;26;122506;-64
2024/04/16 02:38:09;;;;;;;5.72;2.38;;;;;;;9.62;54.99;100013.84;5275602;26;121680;-64
2024/04/16 02:40:36;;;;;;;6.38;2.33;;;;;;;9.62;55.16;100007.72;5276337;26;112596;-64
2024/04/16 02:43:04;;;;;;;5.47;2.53;;;;;;;9.60;55.32;99993.72;5276985;26;112564;-64
2024/04/16 02:45:32;;;;;;;6.57;2.63;;;;;;;9.60;55.43;100001.66;5284893;26;121152;-64
2024/04/16 02:47:59;;;;;;;6.22;2.80;;;;;;;9.60;55.29;100009.59;5284532;26;122195;-63
2024/04/16 02:50:28;;;;;;;4.78;2.55;;;;;;;9.58;55.43;100033.47;5278719;26;112338;-64
2024/04/16 02:52:55;;;;;;;6.70;3.00;;;;;;;9.58;55.28;100019.41;5286111;26;112548;-64
2024/04/16 02:55:25;;;;;;;5.85;3.05;;;;;;;9.55;55.40;100034.50;5286647;26;122266;-64
2024/04/16 02:57:53;;;;;;;6.82;2.90;;;;;;;9.53;55.49;100041.66;5292711;26;122883;-63
2024/04/16 03:00:20;;;;;;;9.25;3.15;;;;;;;9.53;55.64;100046.94;5244614;26;112761;-63
2024/04/16 03:02:48;;;;;;;6.30;2.58;;;;;;;9.54;55.80;100063.66;5257677;26;111367;-63
2024/04/16 03:05:15;;;;;;;5.85;2.58;;;;;;;9.53;55.60;100056.63;5287363;26;122288;-63
2024/04/16 03:07:45;;;;;;;4.00;1.90;;;;;;;9.48;55.53;100046.31;5290861;26;122148;-62
2024/04/16 03:10:16;;;;;;;4.13;1.60;;;;;;;9.43;55.56;100040.41;5269336;26;112586;-64
2024/04/16 03:12:45;;;;;;;3.63;1.40;;;;;;;9.38;55.70;100039.84;5261701;26;111191;-63
2024/04/16 03:15:12;;;;;;;3.25;1.13;;;;;;;9.33;55.74;100039.22;5271146;26;123185;-63
2024/04/16 03:17:39;;;;;;;2.13;1.00;;;;;;;9.29;55.69;100035.03;5277981;26;122538;-64
2024/04/16 03:20:08;;;;;;;2.53;1.00;;;;;;;9.25;55.80;100020.25;5245724;26;113711;-64
2024/04/16 03:22:36;;;;;;;1.35;0.77;;;;;;;9.21;55.87;100030.16;5271071;26;113831;-64
2024/04/16 03:25:04;;;;;;;1.77;0.60;;;;;;;9.18;55.85;100030.31;5291434;26;122150;-64
2024/04/16 03:27:31;;;;;;;1.38;0.80;;;;;;;9.14;55.84;100029.59;5280201;26;121983;-64
2024/04/16 03:29:58;;;;;;;1.35;0.70;;;;;;;9.12;56.01;100031.47;5259174;26;113415;-63
2024/04/16 03:32:26;;;;;;;2.72;0.77;;;;;;;9.09;55.95;100023.69;5291547;26;112817;-63
2024/04/16 03:34:54;;;;;;;3.60;0.88;;;;;;;9.07;55.99;99999.16;5283872;26;123107;-64
2024/04/16 03:37:21;;;;;;;2.75;1.05;;;;;;;9.07;56.07;99993.88;5283063;26;122586;-64
2024/04/16 03:39:49;;;;;;;2.55;1.30;;;;;;;9.06;56.12;99992.19;5272042;26;112821;-64
2024/04/16 03:42:16;;;;;;;4.20;1.45;;;;;;;9.05;56.17;99987.81;5276250;26;112404;-63
2024/04/16 03:44:43;;;;;;;4.65;1.58;;;;;;;9.04;56.35;99988.78;5287278;26;122197;-63
2024/04/16 03:47:11;;;;;;;3.42;1.90;;;;;;;9.04;56.29;100006.38;5247862;26;121277;-63
2024/04/16 03:49:38;;;;;;;6.15;2.17;;;;;;;9.03;56.30;99979.13;5294043;26;112664;-63
2024/04/16 03:52:06;;;;;;;5.18;2.25;;;;;;;9.05;56.45;99966.69;5279080;26;113001;-63
2024/04/16 03:54:33;;;;;;;6.40;2.53;;;;;;;9.04;56.59;99959.72;5291097;26;122073;-63
2024/04/16 03:57:01;;;;;;;5.15;1.95;;;;;;;9.06;56.65;99962.25;5290440;26;122269;-63
2024/04/16 03:59:38;;;;;;;7.43;2.28;;;;;;;9.06;56.72;99952.56;5284054;26;113028;-63
2024/04/16 04:02:06;;;;;;;5.18;2.20;;;;;;;9.08;56.74;99955.97;5293906;26;112616;-63
2024/04/16 04:04:34;;;;;;;6.38;2.15;;;;;;;9.09;56.88;99941.81;5265358;26;122624;-63
2024/04/16 04:07:01;;;;;;;8.32;2.05;;;;;;;9.11;56.91;99945.22;5255156;26;121263;-63
2024/04/16 04:09:29;;;;;;;5.43;2.28;;;;;;;9.12;56.82;99944.31;5286157;26;113868;-63
2024/04/16 04:11:56;;;;;;;4.72;2.30;;;;;;;9.13;56.74;99938.06;5283185;26;113464;-63
2024/04/16 04:14:24;;;;;;;4.88;2.53;;;;;;;9.16;56.97;99932.63;5279713;26;122477;-64
2024/04/16 04:16:52;;;;;;;8.40;2.72;;;;;;;9.20;57.14;99927.19;5265009;26;123555;-63
2024/04/16 04:19:19;;;;;;;7.00;2.75;;;;;;;9.24;57.21;99931.38;5282802;26;111873;-63
2024/04/16 04:21:47;;;;;;;7.57;2.75;;;;;;;9.26;57.14;99916.28;5275966;26;112884;-63
2024/04/16 04:24:17;;;;;;;5.20;2.90;;;;;;;9.28;57.27;99914.41;5266256;26;122114;-63
2024/04/16 04:26:59;;;;;;;7.18;3.28;;;;;;;9.32;57.31;99915.94;5270966;26;122172;-64
2024/04/16 04:29:26;;;;;;;7.63;2.88;;;;;;;9.35;57.42;99915.78;5250624;26;112160;-65
2024/04/16 04:31:55;;;;;;;6.82;2.13;;;;;;;9.37;57.31;99903.34;5273685;26;112746;-65
2024/04/16 04:34:22;;;;;;;7.50;2.30;;;;;;;9.41;57.04;99904.88;5268677;26;123184;-65
2024/04/16 04:36:49;;;;;;;7.28;1.92;;;;;;;9.42;56.95;99901.31;5292376;26;123167;-64
2024/04/16 04:39:17;;;;;;;3.00;1.60;;;;;;;9.43;56.94;99889.78;5277204;26;113248;-65
2024/04/16 04:41:44;;;;;;;5.07;2.08;;;;;;;9.45;56.84;99887.91;5295655;26;112505;-64
2024/04/16 04:44:12;;;;;;;5.93;1.90;;;;;;;9.47;56.79;99878.09;5285753;26;123106;-64
2024/04/16 04:46:39;;;;;;;4.55;1.88;;;;;;;9.48;56.76;99885.09;5281420;26;122788;-64
2024/04/16 04:49:07;;;;;;;2.97;1.60;;;;;;;9.49;56.74;99886.81;5274220;26;112499;-64
2024/04/16 04:51:34;;;;;;;6.85;2.42;;;;;;;9.52;56.89;99891.91;5278901;26;112515;-63
2024/04/16 04:54:02;;;;;;;4.90;1.80;;;;;;;9.53;56.82;99888.34;5274778;26;123004;-64
2024/04/16 04:56:29;;;;;;;6.63;2.30;;;;;;;9.55;56.63;99886.47;5290436;26;122497;-63
2024/04/16 04:58:56;;;;;;;3.85;1.65;;;;;;;9.55;56.72;99867.94;5288445;26;113905;-64
2024/04/16 05:01:24;;;;;;;7.95;2.00;;;;;;;9.59;56.91;99870.41;5260805;26;112475;-64
2024/04/16 05:03:51;;;;;;;5.93;1.90;;;;;;;9.60;56.66;99867.69;5298198;26;122123;-64
2024/04/16 05:06:19;;;;;;;2.72;1.63;;;;;;;9.63;56.61;99866.69;5249822;26;122142;-63
2024/04/16 05:08:46;;;;;;;6.25;1.83;;;;;;;9.62;56.58;99854.38;5285701;26;112559;-63
2024/04/16 05:11:13;;;;;;;5.28;2.25;;;;;;;9.63;56.76;99850.81;5276170;26;112504;-63
2024/04/16 05:13:41;;;;;;;5.43;1.67;;;;;;;9.63;56.73;99840.25;5278416;26;122264;-63
2024/04/16 05:16:08;;;;;;;5.53;1.88;;;;;;;9.65;56.62;99843.66;5252956;26;120971;-63
2024/04/16 05:18:36;;;;;;;3.65;1.70;;;;;;;9.65;56.71;99841.84;5273623;26;113485;-64
2024/04/16 05:21:04;;;;;;;3.80;1.63;;;;;;;9.65;56.64;99833.06;5272396;26;112758;-63
2024/04/16 05:23:31;;;;;;;3.63;1.42;;;;;;;9.66;56.58;99829.47;5269977;26;120890;-64
2024/04/16 05:26:02;;;;;;;3.65;1.30;;;;;;;9.66;56.56;99824.19;5280519;26;122139;-66
2024/04/16 05:28:35;;;;;;;2.90;1.80;;;;;;;9.67;56.73;99825.91;5229215;26;112961;-66
2024/04/16 05:31:03;;;;;;;5.07;1.40;;;;;;;9.68;56.56;99817.00;5289537;26;112520;-65
2024/04/16 05:33:31;;;;;;;4.20;1.48;;;;;;;9.68;56.49;99811.72;5283802;26;122604;-66
2024/04/16 05:35:58;;;;;;;2.78;1.30;;;;;;;9.68;56.64;99822.28;5287872;26;122235;-65
2024/04/16 05:38:33;;;;;;;3.45;1.50;;;;;;;9.67;56.62;99821.44;5282107;26;110943;-65
2024/04/16 05:41:02;;;;;;;3.78;1.08;;;;;;;9.67;56.60;99820.63;5261587;26;111261;-66
2024/04/16 05:43:30;;;;;;;2.80;1.08;;;;;;;9.65;56.52;99811.91;5246570;26;121200;-65
2024/04/16 05:45:58;;;;;;;5.13;1.02;;;;;;;9.63;56.58;99824.38;5251244;26;121901;-67
2024/04/16 05:48:25;;;;;;;4.38;1.02;;;;;;;9.62;56.57;99817.38;5281173;26;114097;-66
2024/04/16 05:50:54;;;;;;;1.55;0.65;;;;;;;9.62;56.41;99822.66;5272975;26;113233;-63
2024/04/16 05:53:22;;;;;;;1.67;0.70;;;;;;;9.59;56.54;99813.13;5261852;26;123047;-63
2024/04/16 05:55:49;;;;;;;1.08;0.70;;;;;;;9.58;56.20;99802.63;5284962;26;122001;-62
2024/04/16 05:58:17;;;;;;;1.38;0.68;;;;;;;9.57;56.72;99788.56;5287233;26;112648;-63
2024/04/16 06:00:45;;;;;;;1.88;0.73;;;;;;;9.58;56.59;99789.41;5262250;26;113149;-63
2024/04/16 06:03:12;;;;;;;2.13;0.90;;;;;;;9.58;56.52;99794.69;5261317;26;122328;-63
2024/04/16 06:05:39;;;;;;;4.93;0.90;;;;;;;9.59;56.75;99791.97;5287635;26;121913;-63
2024/04/16 06:08:07;;;;;;;2.55;0.80;;;;;;;9.60;56.69;99776.97;5268881;26;112909;-63
2024/04/16 06:10:35;;;;;;;0.90;0.50;;;;;;;9.60;56.65;99782.25;5265332;26;112369;-63
2024/04/16 06:13:02;;;;;;;1.80;0.55;;;;;;;9.62;56.66;99790.94;5292506;26;123210;-63
2024/04/16 06:15:30;;;;;;;1.52;0.43;;;;;;;9.62;56.75;99777.72;5281594;26;123115;-64
2024/04/16 06:17:58;;;;;;;1.92;0.60;;;;;;;9.62;56.59;99783.00;5284468;26;112583;-64
2024/04/16 06:20:25;;;;;;;1.95;0.70;;;;;;;9.64;56.88;99775.84;5296585;26;112430;-64
2024/04/16 06:23:21;;;;;;;1.15;0.60;;;;;;;9.66;56.70;99784.53;5287297;26;122493;-65
2024/04/16 06:25:50;;;;;;;2.00;0.60;;;;;;;9.69;56.96;99771.97;5261613;26;121172;-64
2024/04/16 06:28:24;;;;;;;1.67;0.70;;;;;;;9.74;56.92;99769.09;5284583;26;113172;-65
2024/04/16 06:31:01;;;;;;;4.40;0.70;;;;;;;9.80;57.02;99771.34;5265430;26;112285;-64
2024/04/16 06:33:30;;;;;;;2.55;0.88;;;;;;;9.86;56.97;99778.06;5295665;26;122266;-64
2024/04/16 06:35:57;;;;;;;3.60;0.70;;;;;;;9.91;56.98;99771.56;5283757;26;122504;-64
2024/04/16 06:38:25;;;;;;;3.10;0.82;;;;;;;9.99;57.19;99763.16;5293082;26;113585;-64
2024/04/16 06:40:52;;;;;;;5.10;1.25;;;;;;;10.08;57.17;99772.38;5294143;26;113377;-66
2024/04/16 06:43:19;;;;;;;4.78;0.82;;;;;;;10.18;57.28;99777.94;5259704;26;122292;-66
2024/04/16 06:45:47;;;;;;;2.33;0.85;;;;;;;10.25;57.25;99774.81;5277026;26;122033;-65
2024/04/16 06:48:14;;;;;;;4.25;1.08;;;;;;;10.35;57.37;99774.31;5289093;26;112758;-65
2024/04/16 06:50:46;;;;;;;5.80;1.20;;;;;;;10.44;57.31;99773.75;5281800;26;112992;-65
2024/04/16 06:53:14;;;;;;;6.32;1.13;;;;;;;10.54;57.16;99788.09;5261202;26;122397;-65
2024/04/16 06:55:42;;;;;;;2.38;1.05;;;;;;;10.61;57.25;99776.19;5256947;26;122460;-65
2024/04/16 06:58:09;;;;;;;9.68;1.80;;;;;;;10.69;57.60;99786.28;5267412;26;112932;-66
2024/04/16 07:00:36;;;;;;;5.68;1.25;;;;;;;10.80;57.61;99777.69;5274372;26;112557;-65
2024/04/16 07:03:04;;;;;;;6.68;1.75;;;;;;;10.90;57.57;99781.44;5280268;26;124974;-65
2024/04/16 07:05:32;;;;;;;5.68;1.42;;;;;;;11.00;57.65;99787.88;5253105;26;122265;-65
2024/04/16 07:07:59;;;;;;;6.85;1.35;;;;;;;11.13;57.81;99772.00;5271917;26;112706;-65
2024/04/16 07:10:27;;;;;;;4.70;1.20;;;;;;;11.31;57.92;99783.22;5282636;26;112881;-65
2024/04/16 07:12:54;;;;;;;6.15;1.17;;;;;;;11.47;57.94;99775.97;5291358;26;122669;-66
2024/04/16 07:15:22;;;;;;;6.55;1.35;;;;;;;11.61;57.97;99779.50;5269203;26;122686;-65
2024/04/16 07:17:49;;;;;;;4.45;1.42;;;;;;;11.73;57.95;99786.63;5280344;26;111744;-66
2024/04/16 07:20:17;;;;;;;5.38;1.10;;;;;;;11.81;57.69;99784.34;5275805;26;112757;-66
2024/04/16 07:22:44;;;;;;;6.00;1.20;;;;;;;11.88;57.45;99801.56;5268914;26;122566;-67
2024/04/16 07:25:12;;;;;;;5.50;1.10;;;;;;;11.95;57.50;99790.53;5274723;26;122513;-66
2024/04/16 07:27:39;;;;;;;4.78;0.98;;;;;;;11.99;57.38;99802.66;5269068;26;113371;-65
2024/04/16 07:30:07;;;;;;;6.10;1.27;;;;;;;12.04;57.31;99795.22;5259619;26;114176;-66
2024/04/16 07:32:34;;;;;;;6.30;0.98;;;;;;;12.06;57.17;99820.69;5281012;26;122146;-66
2024/04/16 07:35:27;;;;;;;3.40;1.00;;;;;;;12.09;57.05;99814.31;5267262;26;123540;-66
2024/04/16 07:37:55;;;;;;;3.78;1.00;;;;;;;12.12;57.01;99813.28;5265358;26;112509;-66
2024/04/16 07:40:23;;;;;;;4.72;1.00;;;;;;;12.14;56.94;99819.34;5287476;26;112347;-66
2024/04/16 07:42:50;;;;;;;4.55;1.08;;;;;;;12.18;56.96;99803.09;5264747;26;122065;-66
2024/04/16 07:45:18;;;;;;;6.97;1.20;;;;;;;12.24;56.95;99823.94;5249112;26;120970;-66
2024/04/16 07:47:45;;;;;;;6.28;1.33;;;;;;;12.30;57.10;99822.66;5283993;26;112488;-66
2024/04/16 07:50:37;;;;;;;5.10;0.80;;;;;;;12.34;56.88;99833.88;5275681;26;114350;-66
2024/04/16 07:53:05;;;;;;;3.15;1.00;;;;;;;12.37;56.78;99844.31;5277659;26;122328;-66
2024/04/16 07:55:32;;;;;;;2.47;0.95;;;;;;;12.39;56.65;99842.41;5273087;26;122150;-66
2024/04/16 07:58:00;;;;;;;7.28;1.10;;;;;;;12.42;56.63;99820.94;5282959;26;112711;-66
2024/04/16 08:00:28;;;;;;;2.42;1.00;;;;;;;12.45;56.66;99815.41;5292892;26;112922;-66
2024/04/16 08:02:56;;;;;;;3.63;1.00;;;;;;;12.49;56.70;99829.31;5259649;26;121351;-65
2024/04/16 08:05:24;;;;;;;3.47;1.10;;;;;;;12.53;56.76;99812.25;5237014;26;121836;-65
2024/04/16 08:07:51;;;;;;;5.72;1.02;;;;;;;12.60;56.53;99851.56;5279038;26;112963;-65
2024/04/16 08:10:19;;;;;;;7.03;1.27;;;;;;;12.64;56.71;99853.03;5289692;26;113042;-66
2024/04/16 08:12:46;;;;;;;5.95;1.00;;;;;;;12.66;56.60;99851.13;5293466;26;122646;-66
2024/04/16 08:15:14;;;;;;;4.03;1.45;;;;;;;12.69;56.38;99849.19;5275776;26;122321;-65
2024/04/16 08:17:41;;;;;;;4.78;1.15;;;;;;;12.71;56.83;99857.91;5264756;26;112318;-66
2024/04/16 08:20:09;;;;;;;4.55;1.10;;;;;;;12.74;56.52;99857.72;5283656;26;113445;-65
2024/04/16 08:22:37;;;;;;;5.80;1.10;;;;;;;12.79;56.38;99858.22;5282582;26;121943;-65
2024/04/16 08:25:05;;;;;;;7.53;1.33;;;;;;;12.88;56.73;99859.38;5274031;26;122708;-65
2024/04/16 08:27:32;;;;;;;7.55;0.95;;;;;;;12.94;56.57;99859.81;5286438;26;112634;-65
2024/04/16 08:30:00;;;;;;;4.40;1.05;;;;;;;13.02;56.53;99857.44;5274282;26;112558;-66
2024/04/16 08:32:27;;;;;;;4.55;1.00;;;;;;;13.11;56.35;99866.59;5290317;26;123325;-65
2024/04/16 08:34:55;;;;;;;5.72;1.73;;;;;;;13.17;56.65;99891.88;5287641;26;122952;-66
2024/04/16 08:37:22;;;;;;;4.75;1.20;;;;;;;13.24;56.23;99871.84;5268427;26;112638;-66
2024/04/16 08:39:50;;;;;;;5.32;1.27;;;;;;;13.31;56.50;99878.47;5289688;26;112319;-66
2024/04/16 08:42:19;;;;;;;3.45;1.17;;;;;;;13.38;56.12;99869.09;5299289;26;122955;-65
2024/04/16 08:44:48;;;;;;;6.68;1.40;;;;;;;13.43;56.12;99877.59;5280863;26;122122;-65
2024/04/16 08:47:17;;;;;;;6.63;1.42;;;;;;;13.48;55.98;99892.38;5299905;26;112583;-66
2024/04/16 08:49:46;;;;;;;6.70;1.23;;;;;;;13.48;55.93;99892.38;5271520;26;112921;-66
2024/04/16 08:52:17;;;;;;;9.07;1.30;;;;;;;13.46;55.79;99902.28;5259426;26;122510;-66
2024/04/16 08:54:47;;;;;;;5.85;1.30;;;;;;;13.43;55.74;99906.84;5291082;26;122993;-66
2024/04/16 08:57:14;;;;;;;7.70;1.35;;;;;;;13.41;55.88;99916.75;5282473;26;112454;-66
2024/04/16 08:59:42;;;;;;;6.85;1.27;;;;;;;13.38;55.61;99927.59;5294302;26;113011;-66
2024/04/16 09:02:11;;;;;;;3.63;1.08;;;;;;;13.34;55.85;99952.72;5261427;26;121109;-65
2024/04/16 09:04:39;;;;;;;4.78;1.20;;;;;;;13.28;55.63;99945.16;5258573;26;122294;-66
2024/04/16 09:07:07;;;;;;;4.20;0.90;;;;;;;13.21;55.61;99962.50;5289288;26;113610;-66
2024/04/16 09:09:35;;;;;;;4.88;1.25;;;;;;;13.12;55.60;99990.56;5295207;26;113763;-66
2024/04/16 09:12:03;;;;;;;2.53;0.90;;;;;;;13.03;55.40;99981.44;5277409;26;123400;-66
2024/04/16 09:14:31;;;;;;;2.85;1.00;;;;;;;12.94;55.43;99982.06;5292710;26;122683;-65
2024/04/16 09:17:01;;;;;;;4.95;0.80;;;;;;;12.87;55.61;99991.41;5273463;26;112368;-65
2024/04/16 09:19:29;;;;;;;3.50;0.90;;;;;;;12.82;55.33;99988.22;5277450;26;112865;-66
2024/04/16 09:22:00;;;;;;;3.03;0.88;;;;;;;12.76;55.66;99993.97;5281228;26;122189;-66
2024/04/16 09:24:27;;;;;;;3.47;1.00;;;;;;;12.75;55.84;99995.78;5280291;26;123630;-65
2024/04/16 09:26:59;;;;;;;1.75;1.02;;;;;;;12.78;56.00;100007.97;5279388;26;113025;-65
2024/04/16 09:29:27;;;;;;;4.15;0.90;;;;;;;12.81;56.02;100002.47;5280316;26;113324;-66
2024/04/16 09:32:03;;;;;;;5.20;1.10;;;;;;;12.84;56.13;100013.72;5275485;26;122430;-66
2024/04/16 09:34:31;;;;;;;4.60;1.08;;;;;;;12.92;56.33;100010.56;5277008;26;122748;-66
2024/04/16 09:36:59;;;;;;;2.42;0.80;;;;;;;13.02;56.62;100011.63;5258982;26;111222;-66
2024/04/16 09:39:27;;;;;;;1.63;0.77;;;;;;;13.11;56.54;100031.41;5295869;26;112406;-65
2024/04/16 09:41:58;;;;;;;1.65;0.90;;;;;;;13.23;56.27;100029.72;5279724;26;122667;-66
2024/04/16 09:44:30;;;;;;;2.88;1.10;;;;;;;13.34;56.56;100043.16;5282984;26;122431;-67
2024/04/16 09:46:58;;;;;;;4.65;1.08;;;;;;;13.44;56.39;100033.56;5277817;26;112668;-66
2024/04/16 09:49:26;;;;;;;3.53;1.00;;;;;;;13.52;56.25;100050.78;5236239;26;111867;-66
2024/04/16 09:52:08;;;;;;;4.78;1.13;;;;;;;13.64;56.52;100055.28;5267367;26;123416;-64
2024/04/16 09:54:42;;;;;;;3.22;0.98;;;;;;;13.75;56.52;100065.13;5286286;26;122149;-63
2024/04/16 09:57:10;;;;;;;4.57;1.15;;;;;;;13.84;56.31;100067.16;5289605;26;114112;-63
2024/04/16 09:59:41;;;;;;;4.13;0.90;;;;;;;13.92;56.37;100063.94;5263054;26;113294;-63
2024/04/16 10:02:09;;;;;;;4.63;1.40;;;;;;;14.00;56.20;100061.59;5280554;26;123628;-63
2024/04/16 10:04:37;;;;;;;4.68;1.10;;;;;;;14.13;56.31;100067.72;5281720;26;122105;-64
2024/04/16 10:07:05;;;;;;;7.75;1.15;;;;;;;14.29;56.39;100069.28;5281565;26;112685;-63
2024/04/16 10:09:33;;;;;;;3.42;1.00;;;;;;;14.46;56.29;100082.19;5278973;26;112523;-63
2024/04/16 10:12:01;;;;;;;5.47;0.93;;;;;;;14.64;56.40;100065.88;5288517;26;122586;-63
2024/04/16 10:14:29;;;;;;;5.40;1.58;;;;;;;14.77;56.38;100077.31;5279481;26;122050;-64
2024/04/16 10:16:56;;;;;;;1.95;0.80;;;;;;;14.86;55.75;100091.75;5277224;26;112540;-64
2024/04/16 10:19:28;;;;;;;5.57;0.85;;;;;;;14.87;55.91;100094.31;5273305;26;112419;-65
2024/04/16 10:22:01;;;;;;;4.22;1.17;;;;;;;14.90;55.57;100098.53;5282598;26;123706;-63
2024/04/16 10:24:31;;;;;;;2.95;1.00;;;;;;;14.99;55.63;100098.72;5267519;26;122897;-64
2024/04/16 10:26:59;;;;;;;2.45;0.93;;;;;;;15.05;55.40;100096.53;5286420;26;112350;-63
2024/04/16 10:29:26;;;;;;;1.55;0.70;;;;;;;15.14;55.21;100095.84;5284600;26;112383;-63
2024/04/16 10:31:54;;;;;;;4.18;1.00;;;;;;;15.19;54.99;100109.69;5272794;26;123857;-63
2024/04/16 10:34:23;;;;;;;3.15;1.15;;;;;;;15.18;54.90;100098.19;5259610;26;120805;-64
2024/04/16 10:36:52;;;;;;;2.88;1.00;;;;;;;15.17;54.62;100111.63;5253925;26;112706;-64
2024/04/16 10:39:19;;;;;;;1.65;0.70;;;;;;;15.15;54.33;100124.22;5284557;26;113522;-63
2024/04/16 10:41:53;;;;;;;1.00;0.50;;;;;;;15.13;54.24;100120.81;5278984;26;123264;-63
2024/04/16 10:44:22;;;;;;;4.30;0.88;;;;;;;15.12;54.02;100116.44;5257947;26;122396;-63
2024/04/16 10:46:51;;;;;;;2.50;0.90;;;;;;;15.14;54.06;100122.50;5283050;26;114014;-64
2024/04/16 10:49:22;;;;;;;3.65;0.70;;;;;;;15.19;53.95;100125.69;5284441;26;113695;-64
2024/04/16 10:51:51;;;;;;;5.07;0.98;;;;;;;15.28;54.23;100130.31;5275922;26;121853;-63
2024/04/16 10:54:19;;;;;;;3.10;1.00;;;;;;;15.38;54.25;100120.63;5275483;26;122538;-64
2024/04/16 10:56:50;;;;;;;2.45;0.88;;;;;;;15.45;53.91;100128.19;5281176;26;112696;-64
2024/04/16 10:59:18;;;;;;;5.40;1.10;;;;;;;15.45;53.89;100141.53;5279251;26;112316;-64
2024/04/16 11:01:46;;;;;;;6.05;1.20;;;;;;;15.42;53.85;100137.25;5283486;26;122862;-63
2024/04/16 11:04:19;;;;;;;5.18;1.10;;;;;;;15.38;53.86;100152.66;5275689;26;122172;-63
2024/04/16 11:06:47;;;;;;;3.50;1.35;;;;;;;15.34;53.68;100151.19;5286087;26;113270;-64
2024/04/16 11:09:15;;;;;;;6.15;1.30;;;;;;;15.40;54.03;100160.56;5282476;26;112876;-63
2024/04/16 11:11:43;;;;;;;5.25;1.40;;;;;;;15.51;54.12;100157.06;5277550;26;122584;-64
2024/04/16 11:14:11;;;;;;;6.38;1.25;;;;;;;15.65;54.48;100154.19;5280341;26;122015;-63
2024/04/16 11:16:40;;;;;;;2.92;1.08;;;;;;;15.76;53.91;100151.56;5276036;26;112908;-63
2024/04/16 11:19:08;;;;;;;3.97;1.08;;;;;;;15.85;54.01;100170.50;5291306;26;112463;-63
2024/04/16 11:21:36;;;;;;;4.60;1.05;;;;;;;15.89;53.42;100171.97;5282597;26;122181;-63
2024/04/16 11:24:04;;;;;;;5.10;0.98;;;;;;;15.88;53.41;100159.56;5261161;26;122626;-64
2024/04/16 11:26:32;;;;;;;2.33;0.70;;;;;;;15.86;53.00;100172.19;5284140;26;112289;-64
2024/04/16 11:29:01;;;;;;;1.48;0.57;;;;;;;15.82;52.64;100186.75;5243498;26;111249;-64
2024/04/16 11:31:29;;;;;;;2.15;0.68;;;;;;;15.82;52.76;100181.41;5285834;26;123317;-63